createdAt,value
2022-08-26T00:07:30.088Z,4.70
2022-08-26T00:17:31.445Z,7.53
2022-08-26T00:27:39.583Z,5.68
2022-08-26T00:37:59.371Z,5.38
2022-08-26T00:48:04.731Z,5.15
2022-08-26T00:58:06.225Z,7.75
2022-08-26T01:08:07.459Z,6.60
2022-08-26T01:18:08.779Z,11.20
2022-08-26T01:28:11.835Z,10.43
2022-08-26T01:38:13.373Z,9.45
2022-08-26T01:48:15.966Z,10.07
2022-08-26T01:58:24.672Z,16.83
2022-08-26T02:08:28.802Z,19.63
2022-08-26T02:18:30.279Z,24.90
2022-08-26T02:28:33.051Z,22.90
2022-08-26T02:38:34.576Z,30.83
2022-08-26T02:48:36.553Z,41.03
2022-08-26T02:58:37.785Z,39.13
2022-08-26T03:08:39.162Z,40.20
2022-08-26T03:18:41.062Z,47.67
2022-08-26T03:29:01.196Z,49.00
2022-08-26T03:39:03.405Z,50.55
2022-08-26T03:49:05.848Z,52.10
2022-08-26T03:59:07.798Z,42.15
2022-08-26T04:09:10.242Z,46.35
2022-08-26T04:19:11.823Z,44.00
2022-08-26T04:29:16.012Z,41.90
2022-08-26T04:39:18.646Z,38.15
2022-08-26T04:49:21.124Z,42.92
2022-08-26T04:59:22.421Z,40.22
2022-08-26T05:09:23.740Z,44.22
2022-08-26T05:19:27.933Z,51.67
2022-08-26T05:29:29.320Z,41.67
2022-08-26T05:39:31.857Z,44.28
2022-08-26T05:49:33.134Z,42.58
2022-08-26T05:59:35.036Z,39.15
2022-08-26T06:09:40.163Z,34.15
2022-08-26T06:19:41.496Z,17.40
2022-08-26T06:29:42.781Z,33.95
2022-08-26T06:39:44.060Z,39.92
2022-08-26T06:49:45.292Z,26.20
2022-08-26T06:59:46.501Z,29.50
2022-08-26T07:09:47.903Z,38.03
2022-08-26T07:19:53.637Z,32.22
2022-08-26T07:29:57.612Z,39.42
2022-08-26T07:39:59.411Z,30.02
2022-08-26T07:50:01.074Z,35.78
2022-08-26T08:00:02.547Z,33.22
2022-08-26T08:10:09.200Z,27.30
2022-08-26T08:30:13.801Z,21.42
2022-08-26T08:40:17.374Z,17.92
2022-08-26T08:50:20.528Z,17.42
2022-08-26T09:00:30.268Z,10.55
2022-08-26T09:10:42.964Z,12.07
2022-08-26T09:20:54.354Z,14.68
2022-08-26T09:31:14.510Z,18.08
2022-08-26T09:41:32.031Z,12.40
2022-08-26T09:51:33.286Z,18.70
2022-08-26T10:01:36.117Z,22.92
2022-08-26T10:11:40.444Z,22.30
2022-08-26T10:21:49.242Z,45.75
2022-08-26T10:32:03.379Z,29.90
2022-08-26T10:42:09.227Z,57.60
2022-08-26T10:52:22.923Z,31.48
2022-08-26T11:02:36.244Z,32.42
2022-08-26T11:12:37.676Z,23.23
2022-08-26T11:22:47.456Z,24.08
2022-08-26T11:32:50.687Z,18.60
2022-08-26T11:42:58.107Z,22.67
2022-08-26T11:53:06.062Z,17.77
2022-08-26T12:03:08.044Z,21.17
2022-08-26T12:13:10.171Z,20.83
2022-08-26T12:23:30.564Z,19.55
2022-08-26T12:33:32.139Z,15.73
2022-08-26T12:43:43.510Z,19.17
2022-08-26T12:53:44.768Z,24.35
2022-08-26T13:03:46.171Z,24.80
2022-08-26T13:13:47.999Z,16.55
2022-08-26T13:23:49.755Z,16.98
2022-08-26T13:33:51.027Z,13.95
2022-08-26T13:43:53.473Z,18.13
2022-08-26T13:53:54.758Z,16.27
2022-08-26T14:03:56.312Z,11.15
2022-08-26T14:13:57.592Z,18.58
2022-08-26T14:24:00.918Z,6.72
2022-08-26T14:34:03.775Z,8.75
2022-08-26T14:44:06.180Z,8.32
2022-08-26T14:54:13.732Z,7.80
2022-08-26T15:04:15.021Z,5.93
2022-08-26T15:14:19.659Z,8.65
2022-08-26T15:24:21.976Z,7.40
2022-08-26T15:34:23.309Z,11.32
2022-08-26T15:44:24.966Z,5.10
2022-08-26T15:54:26.271Z,5.20
2022-08-26T16:04:27.556Z,12.90
2022-08-26T16:14:28.905Z,12.50
2022-08-26T16:24:30.687Z,5.40
2022-08-26T16:34:31.981Z,3.40
2022-08-26T16:44:44.234Z,8.77
2022-08-26T16:54:45.624Z,6.78
2022-08-26T17:04:47.303Z,5.25
2022-08-26T17:14:54.048Z,4.88
2022-08-26T17:24:55.937Z,8.02
2022-08-26T17:34:57.802Z,3.00
2022-08-26T17:44:59.085Z,7.47
2022-08-26T17:55:00.437Z,3.20
2022-08-26T18:05:01.698Z,5.68
2022-08-26T18:15:03.187Z,2.75
2022-08-26T18:25:05.248Z,4.43
2022-08-26T18:35:06.766Z,4.90
2022-08-26T18:45:08.344Z,3.78
2022-08-26T18:55:09.722Z,9.05
2022-08-26T19:05:11.015Z,3.83
2022-08-26T19:15:13.508Z,9.15
2022-08-26T19:25:14.881Z,1.70
2022-08-26T19:35:16.186Z,6.45
2022-08-26T19:45:25.151Z,9.38
2022-08-26T19:55:26.968Z,5.72
2022-08-26T20:05:28.390Z,6.95
2022-08-26T20:15:29.683Z,3.95
2022-08-26T20:25:32.465Z,9.93
2022-08-26T20:35:34.886Z,6.70
2022-08-26T20:45:36.221Z,10.80
2022-08-26T20:55:37.561Z,2.85
2022-08-26T21:05:38.906Z,10.93
2022-08-26T21:15:40.243Z,7.30
2022-08-26T21:25:41.720Z,3.65
2022-08-26T21:35:50.292Z,5.85
2022-08-26T21:45:56.691Z,3.50
2022-08-26T21:55:57.959Z,5.93
2022-08-26T22:06:01.263Z,4.35
2022-08-26T22:16:02.629Z,3.92
2022-08-26T22:26:04.394Z,5.65
2022-08-26T22:36:08.848Z,7.75
2022-08-26T22:46:10.663Z,5.25
2022-08-26T22:56:12.305Z,8.15
2022-08-26T23:06:13.631Z,11.02
2022-08-26T23:16:14.945Z,7.75
2022-08-26T23:26:17.787Z,8.70
2022-08-26T23:36:22.679Z,11.90
2022-08-26T23:46:24.251Z,10.55
2022-08-26T23:56:26.758Z,6.22
